• Join FlightAware (Why Join?)
  • Login
  • US Flag 
08:19PM EDT


 

Airport Tracker/Info


-or-


 

Live Flight TrackerFlight Track Log ✈ AAL2238 ✈ 21-Apr-2013 ✈ KDFW - KCLT

Flight Track Log - Related Links

Times and Time Zones

All times are in EDT time to prevent confusion due to time zone crossing. See the AAL2238 flight status page for this flight to view local times or setup timezone preferences in your user account.

Time Position Orientation Groundspeed Altitude Reporting Facility
EDT Latitude Longitude Course Direction KTS MPH feet Rate Location/Type
06:17PM 32.8500 -97.0333 65° Northeast 180 207 2,600  Level Dallas / Fort Worth TRACON
06:18PM 32.7833 -97.0333 180° South 231 266 5,100 2,520 Climbing Dallas / Fort Worth TRACON
06:19PM 32.6931 -96.7709 68° East  Level FlightAware Approximate
06:19PM 32.7667 -96.9667 107° East 259 298 7,400  Level Dallas / Fort Worth TRACON
06:20PM 32.7416 -96.6255 68° East  Level FlightAware Approximate
06:21PM 32.7930 -96.4816 65° Northeast  Level FlightAware Approximate
06:21PM 32.8022 -96.7386 79° East 306 352 9,900  Level Fort Worth Center
06:22PM 32.8477 -96.3393 65° Northeast  Level FlightAware Approximate
06:22PM 32.8164 -96.6447 80° East 315 362 10,600  Level Fort Worth Center
06:23PM 32.8364 -96.5108 80° East 351 404 13,100 2,640 Climbing Fort Worth Center
06:24PM 32.8564 -96.3822 79° East 380 437 15,900 2,400 Climbing Fort Worth Center
06:25PM 32.8656 -96.2461 85° East 401 461 18,000 2,040 Climbing Fort Worth Center
06:26PM 32.8683 -96.1050 89° East 418 481 20,000 1,620 Climbing Fort Worth Center
06:27PM 32.8708 -95.9542 89° East 435 501 21,300 1,500 Climbing Fort Worth Center
06:28PM 32.8731 -95.8008 89° East 465 535 23,100 1,620 Climbing Fort Worth Center
06:29PM 32.8753 -95.6375 89° East 470 541 24,600 1,320 Climbing Fort Worth Center
06:30PM 32.8814 -95.4914 87° East 488 562 25,800 1,320 Climbing Fort Worth Center
06:31PM 32.8892 -95.3206 87° East 504 580 27,300 1,380 Climbing Fort Worth Center
06:32PM 32.9092 -95.1542 82° East 504 580 28,600 1,200 Climbing Fort Worth Center
06:33PM 32.9372 -94.9828 79° East 509 586 29,800 1,200 Climbing Fort Worth Center
06:34PM 32.9631 -94.8161 79° East 514 592 31,000 600 Climbing Fort Worth Center
06:35PM 32.9867 -94.6469 81° East 514 592 31,000  Level Fort Worth Center
06:36PM 33.0119 -94.4753 80° East 514 592 31,000  Level Fort Worth Center
06:37PM 33.0372 -94.3086 80° East 514 592 31,000  Level Fort Worth Center
06:38PM 33.0622 -94.1392 80° East 514 592 31,000  Level Fort Worth Center
06:39PM 33.0847 -93.9697 81° East 514 592 31,000  Level Fort Worth Center
06:40PM 33.1108 -93.7803 81° East 520 598 31,100 360 Climbing Fort Worth Center
06:41PM 33.1369 -93.6081 80° East 525 604 31,800 660 Climbing Fort Worth Center
06:42PM 33.1608 -93.4383 80° East 525 604 32,500 600 Climbing Fort Worth Center
06:43PM 33.1867 -93.2633 80° East 525 604 33,000 240 Climbing Fort Worth Center
06:44PM 33.2100 -93.0908 81° East 525 604 33,000  Level Fort Worth Center
06:45PM 33.2353 -92.9183 80° East 525 604 33,000 240 Level Fort Worth Center
06:46PM 33.2581 -92.7458 81° East 525 604 33,500 600 Climbing Fort Worth Center
06:47PM 33.2747 -92.5761 83° East 525 604 34,200 600 Climbing Fort Worth Center
06:49PM 33.2953 -92.3306 84° East 506 582 35,000 300 Climbing Memphis Center
06:50PM 33.3103 -92.1644 84° East 501 577 35,000  Level Memphis Center
06:51PM 33.3250 -92.0006 84° East 501 577 35,000  Level Memphis Center
06:52PM 33.3439 -91.8294 82° East 501 577 35,000  Level Memphis Center
06:53PM 33.3519 -91.6603 87° East 501 577 35,000  Level Memphis Center
06:54PM 33.3661 -91.4914 84° East 501 577 35,000  Level Memphis Center
06:55PM 33.3781 -91.3225 85° East 501 577 35,000  Level Memphis Center
06:56PM 33.3958 -91.1533 83° East 501 577 35,000  Level Memphis Center
06:57PM 33.4072 -90.9844 85° East 501 577 35,000  Level Memphis Center
06:58PM 33.4206 -90.8153 85° East 501 577 35,000  Level Memphis Center
06:59PM 33.4336 -90.6483 85° East 501 577 35,000  Level Memphis Center
07:00PM 33.4464 -90.4792 85° East 501 577 35,000  Level Memphis Center
07:01PM 33.4589 -90.3100 85° East 501 577 35,000  Level Memphis Center
07:02PM 33.4650 -90.1406 87° East 501 577 35,000  Level Memphis Center
07:03PM 33.4686 -89.9711 88° East 501 577 35,000  Level Memphis Center
07:04PM 33.4722 -89.8044 88° East 501 577 35,000  Level Memphis Center
07:05PM 33.4736 -89.6400 89° East 495 570 35,000  Level Memphis Center
07:06PM 33.4767 -89.4731 89° East 495 570 35,000  Level Memphis Center
07:07PM 33.4772 -89.3036 90° East 495 570 35,000  Level Memphis Center
07:08PM 33.4800 -89.1369 89° East 495 570 35,000  Level Memphis Center
07:09PM 33.4803 -88.9725 90° East 495 570 35,000  Level Memphis Center
07:10PM 33.4825 -88.8056 89° East 495 570 35,000  Level Memphis Center
07:11PM 33.4825 -88.6386 90° East 495 570 35,000  Level Memphis Center
07:12PM 33.4925 -88.4742 86° East 495 570 35,000  Level Memphis Center
07:13PM 33.5089 -88.3117 83° East 495 570 35,000  Level Memphis Center
07:14PM 33.5386 -88.0586 82° East 512 589 35,000  Level Atlanta Center
07:15PM 33.5564 -87.8975 82° East 506 582 35,000  Level Atlanta Center
07:16PM 33.5739 -87.7364 83° East 494 568 35,000  Level Atlanta Center
07:17PM 33.5933 -87.5700 82° East 494 568 35,000  Level Atlanta Center
07:18PM 33.6125 -87.4061 82° East 494 568 35,000  Level Atlanta Center
07:19PM 33.6294 -87.2447 83° East 494 568 35,000  Level Atlanta Center
07:20PM 33.6456 -87.0981 82° East 500 575 35,000  Level Atlanta Center
07:21PM 33.6622 -86.9339 83° East 500 575 35,000  Level Atlanta Center
07:22PM 33.6681 -86.7694 88° East 495 570 35,000  Level Atlanta Center
07:23PM 33.6675 -86.6022 90° East 495 570 35,000  Level Atlanta Center
07:24PM 33.6644 -86.4400 91° East 495 570 35,000  Level Atlanta Center
07:25PM 33.6614 -86.2700 91° East 495 570 35,000  Level Atlanta Center
07:26PM 33.6600 -86.1053 91° East 495 570 35,000  Level Atlanta Center
07:27PM 33.6586 -85.9381 91° East 495 570 35,000  Level Atlanta Center
07:28PM 33.6589 -85.7758 90° East 495 570 35,000  Level Atlanta Center
07:29PM 33.6550 -85.6061 92° East 495 570 35,000  Level Atlanta Center
07:30PM 33.6506 -85.4414 92° East 495 570 35,000  Level Atlanta Center
07:31PM 33.6483 -85.2742 91° East 495 570 35,000  Level Atlanta Center
07:32PM 33.6436 -85.1067 92° East 500 575 35,000  Level Atlanta Center
07:33PM 33.6408 -84.9369 91° East 500 575 35,000  Level Atlanta Center
07:34PM 33.6378 -84.7550 91° East 494 568 35,000  Level Atlanta Center
07:35PM 33.6322 -84.5853 92° East 501 577 35,000  Level Atlanta Center
07:36PM 33.6286 -84.4331 92° East 509 586 35,000  Level Atlanta Center
07:37PM 33.6708 -84.2686 73° East 504 580 35,000  Level Atlanta Center
07:38PM 33.7211 -84.1011 70° East 515 593 35,000  Level Atlanta Center
07:39PM 33.7711 -83.9339 70° East 515 593 35,000  Level Atlanta Center
07:40PM 33.8189 -83.7589 72° East 520 598 35,000  Level Atlanta Center
07:41PM 33.8644 -83.5908 72° East 520 598 35,000 -300 Level Atlanta Center
07:42PM 33.9097 -83.4306 71° East 515 593 34,400 -660 Descending Atlanta Center
07:43PM 33.9567 -83.2625 71° East 515 593 33,700 -720 Descending Atlanta Center
07:44PM 34.0014 -83.0967 72° East 520 598 33,000 -720 Descending Atlanta Center
07:45PM 34.0439 -82.9333 73° East 513 590 32,300 -840 Descending Atlanta Center
07:46PM 34.0903 -82.7644 72° East 513 590 31,400 -1,500 Descending Atlanta Center
07:47PM 34.1344 -82.5983 72° East 520 598 29,300 -2,160 Descending Atlanta Center
07:48PM 34.1722 -82.4494 73° East 520 598 27,100 -1,980 Descending Atlanta Center
07:49PM 34.2178 -82.2828 72° East 520 598 25,400 -1,560 Descending Atlanta Center
07:50PM 34.2658 -82.1336 69° East 497 572 24,000 -1,440 Descending Atlanta Center
07:51PM 34.3494 -82.0233 47° Northeast 451 519 22,600 -2,160 Descending Atlanta Center
07:52PM 34.4314 -81.9233 45° Northeast 436 502 19,700 -2,040 Descending Atlanta Center
07:53PM 34.5028 -81.8333 46° Northeast 398 458 18,600 -1,200 Descending Atlanta Center
07:54PM 34.5581 -81.7686 44° Northeast 346 398 17,800 -1,380 Descending Atlanta Center
07:54PM 34.5764 -81.7406 52° Northeast 343 395 17,300 -1,560 Descending Atlanta Center
07:55PM 34.6414 -81.6581 46° Northeast 339 390 15,800 -1,560 Descending Atlanta Center
07:56PM 34.7067 -81.5803 44° Northeast 332 382 14,200 -1,620 Descending Atlanta Center
07:57PM 34.7697 -81.4950 48° Northeast 325 374 12,600 -1,500 Descending Atlanta Center
07:58PM 34.8094 -81.4053 62° Northeast 319 367 11,200 -1,440 Descending Atlanta Center
07:59PM 34.8450 -81.3131 65° Northeast 301 346 9,800 -1,680 Descending Atlanta Center
08:00PM 34.8764 -81.2233 67° East 291 335 7,900 -1,380 Descending Atlanta Center
08:02PM 34.9169 -81.1239 64° Northeast 261 300 6,900 -1,020 Descending FAA TRACON SMA TRACON (SMA)
08:02PM 34.9272 -81.0969 65° Northeast 260 299 6,400 -1,560 Descending FAA TRACON SMA TRACON (SMA)
08:02PM 34.9372 -81.0733 63° Northeast 258 297 5,900 -1,200 Descending FAA TRACON SMA TRACON (SMA)
08:03PM 34.9467 -81.0494 64° Northeast 255 293 5,600 -1,080 Descending FAA TRACON SMA TRACON (SMA)
08:03PM 34.9586 -81.0208 63° Northeast 249 287 5,200 -900 Descending FAA TRACON SMA TRACON (SMA)
08:03PM 34.9678 -80.9978 64° Northeast 248 285 5,000 -780 Descending FAA TRACON SMA TRACON (SMA)
08:04PM 34.9811 -80.9711 59° Northeast 238 274 4,700 -720 Descending FAA TRACON SMA TRACON (SMA)
08:04PM 34.9989 -80.9575 32° Northeast 253 291 4,500 -600 Descending FAA TRACON SMA TRACON (SMA)
08:04PM 35.0225 -80.9514 12° North 250 288 4,300 -660 Descending FAA TRACON SMA TRACON (SMA)